createdAt,value
2023-03-22T00:00:30.652Z,66.20
2023-03-22T00:02:57.215Z,66.40
2023-03-22T00:05:23.774Z,66.30
2023-03-22T00:07:50.313Z,66.10
2023-03-22T00:10:16.809Z,66.20
2023-03-22T00:12:43.315Z,66.30
2023-03-22T00:15:09.807Z,66.40
2023-03-22T00:17:36.335Z,66.40
2023-03-22T00:20:02.838Z,66.50
2023-03-22T00:22:29.330Z,66.90
2023-03-22T00:24:55.797Z,66.40
2023-03-22T00:27:22.277Z,66.20
2023-03-22T00:29:48.814Z,66.50
2023-03-22T00:32:15.320Z,66.50
2023-03-22T00:34:41.815Z,66.60
2023-03-22T00:37:12.815Z,66.70
2023-03-22T00:39:39.301Z,66.50
2023-03-22T00:42:05.772Z,66.40
2023-03-22T00:44:32.236Z,66.50
2023-03-22T00:46:58.712Z,66.60
2023-03-22T00:49:25.182Z,66.50
2023-03-22T00:51:51.681Z,66.60
2023-03-22T00:54:18.184Z,66.50
2023-03-22T00:56:44.689Z,66.50
2023-03-22T00:59:11.164Z,66.90
2023-03-22T01:01:37.664Z,66.50
2023-03-22T01:04:04.187Z,66.80
2023-03-22T01:06:30.664Z,66.70
2023-03-22T01:08:57.134Z,66.70
2023-03-22T01:11:23.634Z,66.70
2023-03-22T01:13:50.122Z,66.70
2023-03-22T01:16:16.624Z,66.70
2023-03-22T01:18:43.142Z,66.80
2023-03-22T01:21:09.628Z,66.80
2023-03-22T01:23:36.393Z,66.70
2023-03-22T01:26:02.937Z,66.40
2023-03-22T01:28:29.445Z,66.40
2023-03-22T01:30:56.041Z,66.40
2023-03-22T01:33:22.628Z,66.40
2023-03-22T01:35:49.176Z,66.50
2023-03-22T01:38:15.720Z,67.40
2023-03-22T01:40:42.619Z,66.40
2023-03-22T01:43:09.208Z,66.50
2023-03-22T01:45:35.711Z,66.70
2023-03-22T01:48:02.323Z,66.80
2023-03-22T01:50:28.839Z,66.50
2023-03-22T01:53:00.798Z,66.70
2023-03-22T01:55:27.269Z,66.70
2023-03-22T01:57:53.746Z,66.80
2023-03-22T02:00:20.319Z,66.80
2023-03-22T02:02:46.882Z,66.80
2023-03-22T02:05:13.501Z,66.80
2023-03-22T02:07:39.960Z,66.50
2023-03-22T02:10:06.463Z,66.60
2023-03-22T02:12:32.963Z,66.70
2023-03-22T02:14:59.671Z,66.40
2023-03-22T02:17:26.158Z,66.40
2023-03-22T02:19:52.676Z,66.70
2023-03-22T02:22:19.150Z,66.70
2023-03-22T02:24:45.629Z,66.50
2023-03-22T02:27:12.132Z,66.50
2023-03-22T02:29:38.622Z,66.60
2023-03-22T02:32:05.089Z,66.60
2023-03-22T02:34:31.594Z,66.80
2023-03-22T02:36:58.090Z,66.80
2023-03-22T02:39:24.569Z,66.80
2023-03-22T02:41:51.046Z,66.60
2023-03-22T02:44:17.529Z,66.50
2023-03-22T02:46:44.056Z,66.70
2023-03-22T02:49:10.562Z,66.70
2023-03-22T02:51:37.046Z,66.60
2023-03-22T02:54:03.530Z,66.60
2023-03-22T02:56:30.008Z,66.50
2023-03-22T02:58:56.495Z,66.50
2023-03-22T03:01:23.104Z,66.60
2023-03-22T03:03:49.759Z,66.50
2023-03-22T03:06:16.259Z,66.60
2023-03-22T03:08:42.740Z,66.50
2023-03-22T03:11:09.238Z,66.40
2023-03-22T03:13:35.717Z,66.50
2023-03-22T03:16:02.251Z,66.50
2023-03-22T03:18:28.750Z,66.50
2023-03-22T03:20:55.227Z,66.60
2023-03-22T03:23:21.703Z,66.50
2023-03-22T03:25:48.170Z,66.50
2023-03-22T03:28:14.650Z,66.50
2023-03-22T03:30:41.365Z,66.50
2023-03-22T03:33:07.939Z,66.40
2023-03-22T03:35:34.500Z,66.60
2023-03-22T03:38:00.989Z,66.60
2023-03-22T03:40:27.483Z,66.40
2023-03-22T03:42:53.961Z,66.50
2023-03-22T03:45:20.438Z,66.50
2023-03-22T03:47:47.069Z,66.60
2023-03-22T03:50:13.622Z,66.50
2023-03-22T03:52:40.114Z,66.60
2023-03-22T03:55:06.590Z,66.50
2023-03-22T03:57:33.294Z,66.80
2023-03-22T03:59:59.773Z,66.60
2023-03-22T04:02:26.266Z,66.50
2023-03-22T04:04:52.771Z,66.50
2023-03-22T04:07:19.265Z,66.50
2023-03-22T04:09:45.732Z,66.50
2023-03-22T04:12:12.237Z,66.50
2023-03-22T04:14:38.719Z,66.50
2023-03-22T04:17:05.249Z,66.50
2023-03-22T04:19:31.748Z,66.50
2023-03-22T04:21:58.233Z,66.60
2023-03-22T04:24:24.715Z,66.70
2023-03-22T04:26:51.206Z,66.80
2023-03-22T04:29:17.697Z,66.80
2023-03-22T04:31:44.260Z,66.70
2023-03-22T04:34:10.757Z,66.80
2023-03-22T04:36:37.240Z,66.80
2023-03-22T04:39:03.705Z,66.90
2023-03-22T04:41:30.381Z,66.70
2023-03-22T04:43:56.874Z,66.60
2023-03-22T04:46:23.397Z,66.60
2023-03-22T04:48:49.918Z,66.80
2023-03-22T04:51:16.401Z,66.80
2023-03-22T04:53:42.885Z,66.70
2023-03-22T04:56:09.372Z,66.70
2023-03-22T04:58:35.862Z,66.70
2023-03-22T05:01:02.350Z,66.90
2023-03-22T05:03:28.852Z,66.90
2023-03-22T05:05:55.334Z,66.90
2023-03-22T05:08:21.843Z,66.90
2023-03-22T05:10:48.335Z,66.90
2023-03-22T05:13:14.848Z,66.80
2023-03-22T05:15:41.374Z,67.00
2023-03-22T05:18:07.873Z,66.80
2023-03-22T05:20:34.373Z,66.90
2023-03-22T05:23:00.851Z,66.50
2023-03-22T05:25:27.360Z,66.50
2023-03-22T05:27:53.832Z,66.40
2023-03-22T05:30:20.301Z,66.60
2023-03-22T05:32:46.792Z,66.50
2023-03-22T05:35:13.265Z,66.70
2023-03-22T05:37:39.749Z,66.70
2023-03-22T05:40:06.215Z,66.70
2023-03-22T05:42:32.704Z,66.70
2023-03-22T05:44:59.200Z,66.60
2023-03-22T05:47:25.675Z,66.70
2023-03-22T05:49:52.145Z,66.70
2023-03-22T05:52:18.625Z,66.80
2023-03-22T05:54:45.100Z,66.70
2023-03-22T05:57:11.582Z,66.80
2023-03-22T05:59:38.058Z,66.80
2023-03-22T06:02:04.553Z,66.70
2023-03-22T06:04:31.056Z,66.80
2023-03-22T06:06:57.548Z,66.80
2023-03-22T06:09:24.027Z,66.90
2023-03-22T06:11:50.520Z,66.90
2023-03-22T06:14:17.023Z,67.00
2023-03-22T06:16:43.539Z,67.00
2023-03-22T06:19:10.008Z,66.90
2023-03-22T06:21:36.502Z,66.90
2023-03-22T06:24:02.984Z,66.70
2023-03-22T06:26:29.460Z,66.60
2023-03-22T06:28:55.922Z,66.70
2023-03-22T06:31:22.464Z,66.70
2023-03-22T06:33:48.991Z,66.90
2023-03-22T06:36:15.560Z,66.90
2023-03-22T06:38:42.072Z,66.80
2023-03-22T06:41:08.553Z,66.90
2023-03-22T06:43:35.030Z,66.80
2023-03-22T06:46:01.499Z,66.80
2023-03-22T06:48:28.061Z,66.60
2023-03-22T06:50:54.621Z,66.70
2023-03-22T06:53:21.105Z,66.50
2023-03-22T06:55:47.616Z,66.70
2023-03-22T06:58:14.151Z,66.70
2023-03-22T07:00:40.774Z,66.70
2023-03-22T07:03:07.384Z,66.80
2023-03-22T07:05:33.889Z,66.70
2023-03-22T07:08:00.386Z,66.70
2023-03-22T07:10:26.851Z,66.80
2023-03-22T07:12:53.331Z,66.70
2023-03-22T07:15:19.788Z,66.90
2023-03-22T07:17:46.285Z,67.00
2023-03-22T07:20:12.770Z,66.90
2023-03-22T07:22:39.257Z,66.80
2023-03-22T07:25:05.745Z,66.80
2023-03-22T07:27:32.243Z,66.80
2023-03-22T07:29:58.723Z,66.80
2023-03-22T07:32:25.261Z,66.80
2023-03-22T07:34:51.775Z,66.80
2023-03-22T07:37:18.272Z,66.60
2023-03-22T07:39:45.078Z,66.60
2023-03-22T07:42:11.609Z,66.50
2023-03-22T07:44:38.202Z,66.60
2023-03-22T07:47:04.746Z,66.50
2023-03-22T07:49:31.315Z,66.70
2023-03-22T07:51:57.811Z,66.50
2023-03-22T07:54:33.496Z,66.50
2023-03-22T07:57:00.542Z,66.40
2023-03-22T07:59:27.055Z,66.50
2023-03-22T08:01:53.553Z,66.70
2023-03-22T08:04:20.055Z,66.50
2023-03-22T08:06:46.568Z,66.50
2023-03-22T08:09:13.108Z,66.30
2023-03-22T08:11:39.641Z,66.60
2023-03-22T08:14:06.130Z,66.60
2023-03-22T08:16:32.746Z,66.50
2023-03-22T08:18:59.283Z,66.50
2023-03-22T08:21:25.788Z,66.40
2023-03-22T08:23:52.281Z,66.30
2023-03-22T08:26:18.789Z,66.50
2023-03-22T08:28:45.289Z,66.30
2023-03-22T08:31:13.848Z,66.30
2023-03-22T08:33:41.186Z,66.20
2023-03-22T08:36:07.709Z,66.50
2023-03-22T08:38:34.205Z,66.50
2023-03-22T08:41:00.722Z,66.10
2023-03-22T08:43:27.216Z,66.10
2023-03-22T08:45:53.763Z,65.90
2023-03-22T08:48:20.308Z,65.90
2023-03-22T08:50:46.820Z,65.90
2023-03-22T08:53:13.308Z,66.20
2023-03-22T08:55:39.980Z,66.00
2023-03-22T08:58:06.612Z,66.00
2023-03-22T09:00:47.426Z,65.90
2023-03-22T09:03:14.483Z,65.60
2023-03-22T09:05:41.344Z,65.70
2023-03-22T09:08:08.086Z,65.70
2023-03-22T09:10:34.578Z,65.60
2023-03-22T09:13:01.077Z,65.50
2023-03-22T09:15:27.547Z,65.20
2023-03-22T09:17:54.025Z,65.20
2023-03-22T09:20:20.533Z,65.40
2023-03-22T09:22:47.029Z,65.20
2023-03-22T09:25:13.597Z,65.40
2023-03-22T09:27:40.122Z,65.40
2023-03-22T09:30:06.619Z,64.40
2023-03-22T09:32:33.253Z,64.60
2023-03-22T09:34:59.985Z,64.70
2023-03-22T09:37:26.516Z,64.50
2023-03-22T09:39:52.993Z,64.30
2023-03-22T09:42:19.496Z,64.00
2023-03-22T09:44:45.977Z,64.20
2023-03-22T09:47:12.504Z,64.20
2023-03-22T09:49:52.704Z,64.00
2023-03-22T09:52:20.164Z,64.10
2023-03-22T09:54:46.698Z,64.10
2023-03-22T09:57:13.249Z,64.20
2023-03-22T09:59:39.759Z,64.10
2023-03-22T10:02:06.392Z,64.10
2023-03-22T10:04:32.986Z,64.20
2023-03-22T10:06:59.538Z,64.40
2023-03-22T10:09:26.049Z,64.30
2023-03-22T10:11:52.551Z,64.20
2023-03-22T10:14:19.031Z,63.60
2023-03-22T10:16:45.516Z,63.70
2023-03-22T10:19:12.012Z,63.70
2023-03-22T10:21:38.487Z,63.50
2023-03-22T10:24:04.958Z,63.30
2023-03-22T10:26:31.461Z,63.20
2023-03-22T10:28:57.963Z,62.90
2023-03-22T10:31:24.451Z,62.80
2023-03-22T10:33:57.265Z,63.10
2023-03-22T10:36:23.757Z,62.70
2023-03-22T10:38:50.259Z,62.60
2023-03-22T10:41:16.735Z,62.70
2023-03-22T10:43:43.230Z,62.70
2023-03-22T10:46:09.731Z,62.80
2023-03-22T10:48:36.296Z,62.70
2023-03-22T10:51:02.839Z,63.00
2023-03-22T10:53:29.365Z,63.00
2023-03-22T10:55:55.921Z,62.70
2023-03-22T10:58:22.421Z,63.10
2023-03-22T11:00:49.000Z,62.80
2023-03-22T11:03:15.653Z,62.80
2023-03-22T11:05:42.261Z,62.60
2023-03-22T11:08:08.902Z,62.90
2023-03-22T11:10:35.470Z,62.60
2023-03-22T11:13:02.085Z,62.40
2023-03-22T11:15:28.586Z,62.40
2023-03-22T11:17:55.112Z,62.20
2023-03-22T11:20:21.613Z,62.70
2023-03-22T11:22:48.110Z,62.50
2023-03-22T11:25:14.615Z,62.60
2023-03-22T11:27:41.090Z,62.20
2023-03-22T11:30:07.570Z,62.70
2023-03-22T11:32:34.077Z,61.70
2023-03-22T11:35:00.583Z,61.90
2023-03-22T11:37:27.072Z,62.10
2023-03-22T11:39:55.168Z,62.10
2023-03-22T11:42:21.668Z,62.30
2023-03-22T11:44:48.173Z,62.20
2023-03-22T11:47:14.675Z,61.90
2023-03-22T11:49:41.255Z,62.30
2023-03-22T11:52:07.775Z,62.30
2023-03-22T11:54:34.359Z,62.50
2023-03-22T11:57:00.845Z,62.40
2023-03-22T11:59:27.356Z,62.00
2023-03-22T12:01:53.858Z,61.60
2023-03-22T12:04:20.428Z,62.40
2023-03-22T12:06:46.946Z,61.90
2023-03-22T12:09:13.469Z,62.00
2023-03-22T12:11:39.956Z,62.00
2023-03-22T12:14:06.473Z,62.30
2023-03-22T12:16:33.129Z,62.70
2023-03-22T12:18:59.694Z,62.10
2023-03-22T12:21:26.193Z,62.40
2023-03-22T12:23:52.716Z,62.20
2023-03-22T12:26:19.198Z,62.40
2023-03-22T12:28:45.685Z,62.30
2023-03-22T12:31:12.251Z,62.30
2023-03-22T12:33:38.767Z,62.10
2023-03-22T12:36:05.313Z,62.50
2023-03-22T12:38:31.849Z,62.70
2023-03-22T12:40:58.329Z,62.40
2023-03-22T12:43:24.834Z,62.70
2023-03-22T12:45:51.327Z,62.30
2023-03-22T12:48:17.880Z,62.10
2023-03-22T12:50:44.430Z,62.50
2023-03-22T12:53:10.917Z,62.00
2023-03-22T12:55:37.405Z,62.10
2023-03-22T12:58:03.897Z,62.20
2023-03-22T13:00:30.416Z,63.30
2023-03-22T13:02:57.004Z,61.90
2023-03-22T13:05:23.560Z,61.80
2023-03-22T13:07:50.040Z,62.60
2023-03-22T13:10:16.525Z,62.20
2023-03-22T13:12:43.015Z,62.00
2023-03-22T13:15:09.526Z,61.80
2023-03-22T13:17:36.176Z,61.60
2023-03-22T13:20:02.709Z,62.20
2023-03-22T13:22:29.198Z,62.00
2023-03-22T13:24:55.730Z,62.20
2023-03-22T13:27:22.239Z,62.20
2023-03-22T13:29:48.730Z,62.40
2023-03-22T13:32:15.281Z,62.10
2023-03-22T13:34:41.824Z,62.20
2023-03-22T13:37:08.311Z,62.30
2023-03-22T13:39:34.820Z,63.50
2023-03-22T13:42:01.354Z,62.50
2023-03-22T13:44:27.828Z,62.60
2023-03-22T13:46:54.297Z,62.60
2023-03-22T13:49:20.774Z,62.30
2023-03-22T13:51:47.389Z,62.70
2023-03-22T13:54:13.915Z,62.10
2023-03-22T13:56:40.435Z,62.90
2023-03-22T13:59:06.926Z,61.90
2023-03-22T14:01:33.407Z,62.10
2023-03-22T14:03:59.958Z,62.40
2023-03-22T14:06:26.520Z,62.00
2023-03-22T14:08:53.024Z,61.70
2023-03-22T14:11:19.519Z,61.90
2023-03-22T14:13:46.377Z,62.00
2023-03-22T14:16:12.919Z,61.50
2023-03-22T14:18:39.481Z,62.30
2023-03-22T14:21:05.988Z,61.80
